Time;durP1;ratioP1;P1;durP2;ratioP2;P2;SDS_P1;SDS_P2;PMS_P1;PMS_P2;Temp;Humidity;BMP_temperature;BMP_pressure;BME280_temperature;BME280_humidity;BME280_pressure;Samples;Min_cycle;Max_cycle;Signal;HPM_P1;HPM_P2
2023/03/01 00:01:58;;;;;;;15.93;13.53;;;0.50;99.90;;;;;;5019522;28;20263;-72
2023/03/01 00:04:24;;;;;;;14.57;12.53;;;0.40;99.90;;;;;;5018392;28;20190;-72
2023/03/01 00:06:49;;;;;;;16.50;12.23;;;0.40;99.90;;;;;;5017810;28;20265;-72
2023/03/01 00:09:15;;;;;;;16.20;12.67;;;0.40;99.90;;;;;;5020594;28;20242;-72
2023/03/01 00:11:42;;;;;;;15.03;12.83;;;0.40;99.90;;;;;;5019333;28;20216;-72
2023/03/01 00:14:07;;;;;;;17.70;13.20;;;0.40;99.90;;;;;;5019592;28;20674;-73
2023/03/01 00:16:41;;;;;;;17.67;13.57;;;0.40;99.90;;;;;;5020068;28;20195;-73
2023/03/01 00:19:12;;;;;;;19.40;13.43;;;0.30;99.90;;;;;;5019245;28;20709;-73
2023/03/01 00:21:37;;;;;;;18.47;14.20;;;0.30;99.90;;;;;;5018122;28;20176;-73
2023/03/01 00:24:03;;;;;;;16.43;13.17;;;0.20;99.90;;;;;;5020510;28;20200;-72
2023/03/01 00:26:29;;;;;;;15.40;12.30;;;0.20;99.90;;;;;;5020182;28;20199;-73
2023/03/01 00:28:56;;;;;;;16.53;12.73;;;0.20;99.90;;;;;;5018223;28;20208;-73
2023/03/01 00:31:24;;;;;;;20.30;14.53;;;0.20;99.90;;;;;;5018041;28;20200;-72
2023/03/01 00:33:56;;;;;;;20.63;14.13;;;0.20;99.90;;;;;;5018401;28;20224;-72
2023/03/01 00:36:23;;;;;;;19.53;13.53;;;0.10;99.90;;;;;;5018049;28;20190;-73
2023/03/01 00:38:48;;;;;;;19.03;13.77;;;0.10;99.90;;;;;;5019689;28;20235;-72
2023/03/01 00:41:16;;;;;;;17.90;13.57;;;0.00;99.90;;;;;;5020383;28;20228;-72
2023/03/01 00:43:43;;;;;;;19.87;13.53;;;0.10;99.90;;;;;;5020580;28;20274;-72
2023/03/01 00:46:18;;;;;;;18.47;14.70;;;0.00;99.90;;;;;;5016685;28;20221;-72
2023/03/01 00:48:44;;;;;;;20.17;13.83;;;0.10;99.90;;;;;;5018738;28;20212;-71
2023/03/01 00:51:12;;;;;;;20.87;15.47;;;0.10;99.90;;;;;;5019287;28;20193;-72
2023/03/01 00:53:38;;;;;;;17.97;14.03;;;0.00;99.90;;;;;;5016904;28;20246;-71
2023/03/01 00:56:05;;;;;;;17.97;14.17;;;0.00;99.90;;;;;;5016918;28;20239;-72
2023/03/01 00:58:31;;;;;;;16.53;14.47;;;0.00;99.90;;;;;;5019484;28;20222;-71
2023/03/01 01:00:57;;;;;;;18.90;14.10;;;0.00;99.90;;;;;;5015606;28;20185;-72
2023/03/01 01:03:24;;;;;;;17.97;14.60;;;0.00;99.90;;;;;;5019597;28;20189;-72
2023/03/01 01:05:53;;;;;;;17.47;13.80;;;0.10;99.90;;;;;;5018551;28;20234;-73
2023/03/01 01:08:20;;;;;;;20.33;15.73;;;0.10;99.90;;;;;;5016124;28;20209;-73
2023/03/01 01:10:46;;;;;;;21.57;16.30;;;0.10;99.90;;;;;;5018276;28;20754;-73
2023/03/01 01:13:13;;;;;;;19.00;14.97;;;0.00;99.90;;;;;;5018912;28;20207;-72
2023/03/01 01:15:39;;;;;;;19.40;13.73;;;0.00;99.90;;;;;;5023652;28;20598;-72
2023/03/01 01:18:05;;;;;;;19.77;15.00;;;0.00;99.90;;;;;;5022134;28;20623;-72
2023/03/01 01:20:30;;;;;;;18.73;14.83;;;-0.10;99.90;;;;;;5020850;28;20180;-71
2023/03/01 01:22:56;;;;;;;19.63;14.00;;;-0.10;99.90;;;;;;5023087;28;20188;-72
2023/03/01 01:25:24;;;;;;;21.23;14.20;;;-0.10;99.90;;;;;;5021955;28;21119;-68
2023/03/01 01:27:50;;;;;;;17.97;14.50;;;-0.10;99.90;;;;;;5017777;28;20205;-71
2023/03/01 01:30:16;;;;;;;18.43;14.47;;;-0.20;99.90;;;;;;5020595;28;20237;-72
2023/03/01 01:32:42;;;;;;;21.37;15.57;;;-0.20;99.90;;;;;;5019296;28;20185;-72
2023/03/01 01:35:07;;;;;;;20.50;14.43;;;-0.20;99.90;;;;;;5022490;28;20651;-72
2023/03/01 01:37:34;;;;;;;19.07;14.27;;;-0.20;99.90;;;;;;5019284;28;20214;-73
2023/03/01 01:40:03;;;;;;;18.53;14.17;;;-0.30;99.90;;;;;;5018714;28;20187;-71
2023/03/01 01:42:29;;;;;;;18.93;14.70;;;-0.30;99.90;;;;;;5023944;28;20199;-71
2023/03/01 01:45:23;;;;;;;19.80;14.80;;;-0.40;99.90;;;;;;5017407;28;20204;-72
2023/03/01 01:47:50;;;;;;;21.63;15.97;;;-0.40;99.90;;;;;;5020936;28;20258;-72
2023/03/01 01:50:18;;;;;;;20.83;14.63;;;-0.40;99.90;;;;;;5022677;28;20187;-72
2023/03/01 01:52:44;;;;;;;21.37;16.13;;;-0.40;99.90;;;;;;5019284;28;20184;-72
2023/03/01 01:55:15;;;;;;;17.73;14.93;;;-0.40;99.90;;;;;;5017555;28;22991;-72
2023/03/01 01:57:46;;;;;;;20.37;15.63;;;-0.40;99.90;;;;;;5017023;28;20236;-72
2023/03/01 02:00:19;;;;;;;22.10;15.03;;;-0.40;99.90;;;;;;5019685;28;20176;-72
2023/03/01 02:02:46;;;;;;;19.10;14.13;;;-0.40;99.90;;;;;;5022052;28;20233;-72
2023/03/01 02:05:20;;;;;;;16.90;13.20;;;-0.50;99.90;;;;;;5019118;28;20457;-72
2023/03/01 02:07:47;;;;;;;21.73;14.87;;;-0.40;99.90;;;;;;5018093;28;20208;-72
2023/03/01 02:10:12;;;;;;;20.40;14.70;;;-0.40;99.90;;;;;;5033036;28;20664;-72
2023/03/01 02:12:39;;;;;;;20.47;15.03;;;-0.30;99.90;;;;;;5019807;28;20194;-72
2023/03/01 02:15:05;;;;;;;19.77;15.87;;;-0.40;99.90;;;;;;5015228;28;20742;-72
2023/03/01 02:17:31;;;;;;;21.53;15.30;;;-0.50;99.90;;;;;;5017959;28;20791;-72
2023/03/01 02:20:21;;;;;;;21.53;15.50;;;-0.50;99.90;;;;;;5016628;28;20180;-73
2023/03/01 02:22:48;;;;;;;24.50;15.00;;;-0.60;99.90;;;;;;5018349;28;20549;-72
2023/03/01 02:25:19;;;;;;;19.47;15.10;;;-0.60;99.90;;;;;;5021752;28;20188;-72
2023/03/01 02:27:50;;;;;;;20.00;14.37;;;-0.70;99.90;;;;;;5018105;28;20304;-72
2023/03/01 02:30:17;;;;;;;19.03;15.03;;;-0.70;99.90;;;;;;5020814;28;20238;-72
2023/03/01 02:32:44;;;;;;;20.10;15.03;;;-0.70;99.90;;;;;;5018616;28;20192;-71
2023/03/01 02:35:14;;;;;;;20.87;15.20;;;-0.80;99.90;;;;;;5017394;28;20563;-72
2023/03/01 02:37:40;;;;;;;19.83;14.70;;;-0.80;99.90;;;;;;5018954;28;20276;-72
2023/03/01 02:40:15;;;;;;;22.47;15.00;;;-0.90;99.90;;;;;;5019176;28;20188;-72
2023/03/01 02:42:49;;;;;;;18.83;14.80;;;-0.80;99.90;;;;;;5019566;28;20672;-72
2023/03/01 02:45:15;;;;;;;21.87;14.07;;;-0.90;99.90;;;;;;5016289;28;20287;-72
2023/03/01 02:47:41;;;;;;;23.27;15.83;;;-0.90;99.90;;;;;;5019874;28;20176;-72
2023/03/01 02:50:29;;;;;;;20.60;14.87;;;-0.90;99.90;;;;;;5016488;28;20664;-72
2023/03/01 02:53:08;;;;;;;20.37;15.13;;;-1.00;99.90;;;;;;5016667;28;20232;-71
2023/03/01 02:55:33;;;;;;;19.70;14.73;;;-1.00;99.90;;;;;;5018789;28;20681;-72
2023/03/01 02:58:02;;;;;;;18.07;14.03;;;-1.00;99.90;;;;;;5019420;28;20197;-72
2023/03/01 03:00:39;;;;;;;22.80;15.37;;;-1.00;99.90;;;;;;5016324;28;20195;-70
2023/03/01 03:03:06;;;;;;;17.60;13.30;;;-1.10;99.90;;;;;;5021412;28;20195;-71
2023/03/01 03:05:32;;;;;;;19.57;14.60;;;-1.00;99.90;;;;;;5023773;28;20184;-71
2023/03/01 03:08:00;;;;;;;19.13;14.50;;;-1.10;99.90;;;;;;5021430;28;20292;-71
2023/03/01 03:10:31;;;;;;;19.27;14.90;;;-1.10;99.90;;;;;;5032782;28;20534;-71
2023/03/01 03:13:03;;;;;;;18.43;14.40;;;-1.10;99.90;;;;;;5021968;28;20200;-71
2023/03/01 03:15:29;;;;;;;22.27;14.57;;;-1.20;99.90;;;;;;5020159;28;20561;-71
2023/03/01 03:17:56;;;;;;;24.93;15.93;;;-1.10;99.90;;;;;;5017665;28;20227;-72
2023/03/01 03:20:24;;;;;;;20.23;14.27;;;-1.20;99.90;;;;;;5018142;28;20239;-71
2023/03/01 03:22:52;;;;;;;18.13;14.07;;;-1.20;99.90;;;;;;5019525;28;20203;-71
2023/03/01 03:25:19;;;;;;;20.53;15.10;;;-1.20;99.90;;;;;;5019498;28;20271;-72
2023/03/01 03:27:46;;;;;;;18.27;13.97;;;-1.20;99.90;;;;;;5021559;28;20207;-72
2023/03/01 03:30:15;;;;;;;19.63;14.53;;;-1.20;99.90;;;;;;5020304;28;20194;-71
2023/03/01 03:32:50;;;;;;;20.90;14.80;;;-1.20;99.90;;;;;;5016740;28;20434;-72
2023/03/01 03:35:16;;;;;;;18.57;13.63;;;-1.20;99.90;;;;;;5019497;28;20167;-72
2023/03/01 03:40:28;;;;;;;21.07;14.97;;;-1.30;99.90;;;;;;5020078;28;20226;-72
2023/03/01 03:42:54;;;;;;;20.63;15.17;;;-1.40;99.90;;;;;;5015268;28;20208;-72
2023/03/01 03:45:20;;;;;;;19.60;15.20;;;-1.40;99.90;;;;;;5020356;28;20638;-72
2023/03/01 03:47:45;;;;;;;24.73;15.47;;;-1.40;99.90;;;;;;5019197;28;20200;-71
2023/03/01 03:50:13;;;;;;;18.50;14.40;;;-1.40;99.90;;;;;;5019874;28;20642;-71
2023/03/01 03:52:39;;;;;;;21.90;14.50;;;-1.40;99.90;;;;;;5018800;28;20197;-72
2023/03/01 03:55:10;;;;;;;17.80;14.17;;;-1.40;99.90;;;;;;5020113;28;20188;-73
2023/03/01 03:57:42;;;;;;;20.70;15.07;;;-1.40;99.90;;;;;;5018809;28;20574;-72
2023/03/01 04:00:14;;;;;;;19.93;15.03;;;-1.40;99.90;;;;;;5017848;28;20240;-72
2023/03/01 04:02:41;;;;;;;20.50;15.07;;;-1.50;99.90;;;;;;5018759;28;20200;-71
2023/03/01 04:05:09;;;;;;;21.53;16.50;;;-1.50;99.90;;;;;;5020273;28;20193;-71
2023/03/01 04:07:35;;;;;;;23.10;15.57;;;-1.50;99.90;;;;;;5018842;28;20181;-71
2023/03/01 04:10:03;;;;;;;19.17;14.27;;;-1.50;99.90;;;;;;5017447;28;20188;-72
2023/03/01 04:12:29;;;;;;;22.30;15.63;;;-1.50;99.90;;;;;;5019460;28;20559;-72
2023/03/01 04:14:54;;;;;;;21.60;16.20;;;-1.60;99.90;;;;;;5020831;28;20212;-71
2023/03/01 04:17:20;;;;;;;22.60;15.43;;;-1.50;99.90;;;;;;5018806;28;21953;-71
2023/03/01 04:19:48;;;;;;;20.43;14.53;;;-1.60;99.90;;;;;;5019451;28;20245;-71
2023/03/01 04:22:17;;;;;;;19.73;14.37;;;-1.60;99.90;;;;;;5019816;28;20535;-72
2023/03/01 04:24:43;;;;;;;19.53;14.80;;;-1.50;99.90;;;;;;5019200;28;23217;-72
2023/03/01 04:27:09;;;;;;;24.20;16.13;;;-1.50;99.90;;;;;;5020634;28;20248;-71
2023/03/01 04:29:34;;;;;;;21.23;16.03;;;-1.60;99.90;;;;;;5019627;28;20655;-71
2023/03/01 04:32:00;;;;;;;20.03;15.00;;;-1.60;99.90;;;;;;5019564;28;20235;-71
2023/03/01 04:34:28;;;;;;;19.63;14.93;;;-1.60;99.90;;;;;;5018718;28;20251;-71
2023/03/01 04:36:54;;;;;;;20.30;14.67;;;-1.60;99.90;;;;;;5020045;28;20207;-72
2023/03/01 04:39:20;;;;;;;20.33;15.67;;;-1.60;99.90;;;;;;5021649;28;20879;-73
2023/03/01 04:41:46;;;;;;;21.33;16.90;;;-1.60;99.90;;;;;;5018475;28;20184;-73
2023/03/01 04:44:12;;;;;;;24.80;16.07;;;-1.60;99.90;;;;;;5022327;28;20196;-72
2023/03/01 04:46:38;;;;;;;20.00;15.23;;;-1.60;99.90;;;;;;5020175;28;20185;-72
2023/03/01 04:49:04;;;;;;;22.87;15.80;;;-1.60;99.90;;;;;;5022385;28;20574;-71
2023/03/01 04:51:32;;;;;;;24.43;16.73;;;-1.70;99.90;;;;;;5024782;28;20569;-72
2023/03/01 04:53:58;;;;;;;19.63;15.30;;;-1.70;99.90;;;;;;5020998;28;20209;-71
2023/03/01 04:56:23;;;;;;;23.77;16.93;;;-1.70;99.90;;;;;;5015795;28;20188;-72
2023/03/01 04:58:49;;;;;;;23.70;15.30;;;-1.70;99.90;;;;;;5021200;28;20199;-72
2023/03/01 05:01:17;;;;;;;23.07;15.77;;;-1.70;99.90;;;;;;5021613;28;20189;-72
2023/03/01 05:03:45;;;;;;;23.30;15.63;;;-1.70;99.90;;;;;;5021275;28;20224;-72
2023/03/01 05:06:11;;;;;;;22.43;16.13;;;-1.60;99.90;;;;;;5021799;28;20193;-72
2023/03/01 05:08:38;;;;;;;23.23;15.47;;;-1.70;99.90;;;;;;5020957;28;20581;-72
2023/03/01 05:11:05;;;;;;;22.17;15.73;;;-1.70;99.90;;;;;;5022755;28;20176;-72
2023/03/01 05:13:31;;;;;;;20.67;15.23;;;-1.70;99.90;;;;;;5021853;28;20288;-72
2023/03/01 05:15:59;;;;;;;18.73;14.10;;;-1.70;99.90;;;;;;5019649;28;20236;-72
2023/03/01 05:18:27;;;;;;;22.43;16.43;;;-1.70;99.90;;;;;;5021381;28;20226;-72
2023/03/01 05:21:01;;;;;;;20.47;15.53;;;-1.70;99.90;;;;;;5020198;28;20653;-71
2023/03/01 05:23:26;;;;;;;22.13;14.37;;;-1.70;99.90;;;;;;5019407;28;20177;-72
2023/03/01 05:25:52;;;;;;;19.70;15.27;;;-1.70;99.90;;;;;;5022729;28;21518;-71
2023/03/01 05:28:19;;;;;;;21.77;16.67;;;-1.70;99.90;;;;;;5022434;28;20233;-72
2023/03/01 05:30:46;;;;;;;20.53;15.60;;;-1.70;99.90;;;;;;5021041;28;20189;-72
2023/03/01 05:33:14;;;;;;;20.53;15.97;;;-1.70;99.90;;;;;;5019734;28;20224;-72
2023/03/01 05:35:44;;;;;;;21.67;16.00;;;-1.80;99.90;;;;;;5021334;28;20250;-73
2023/03/01 05:38:14;;;;;;;24.87;18.03;;;-1.80;99.90;;;;;;5020945;28;20817;-73
2023/03/01 05:40:41;;;;;;;21.33;15.60;;;-1.80;99.90;;;;;;5020515;28;20172;-72
2023/03/01 05:43:07;;;;;;;21.60;14.90;;;-1.80;99.90;;;;;;5020851;28;20548;-72
2023/03/01 05:45:35;;;;;;;26.53;17.70;;;-1.90;99.90;;;;;;5019133;28;20194;-72
2023/03/01 05:48:01;;;;;;;20.67;15.97;;;-1.80;99.90;;;;;;5018987;28;20239;-72
2023/03/01 05:50:28;;;;;;;22.87;16.17;;;-1.90;99.90;;;;;;5019936;28;20176;-72
2023/03/01 05:52:58;;;;;;;21.40;15.07;;;-1.90;99.90;;;;;;5022774;28;20184;-71
2023/03/01 05:55:24;;;;;;;22.33;16.67;;;-1.90;99.90;;;;;;5033993;28;20199;-72
2023/03/01 05:57:50;;;;;;;22.30;15.80;;;-1.90;99.90;;;;;;5020224;28;20674;-73
2023/03/01 06:00:19;;;;;;;24.00;15.90;;;-1.90;99.90;;;;;;5021761;28;20180;-72
2023/03/01 06:02:45;;;;;;;21.90;15.97;;;-1.80;99.90;;;;;;5022891;28;20226;-72
2023/03/01 06:05:12;;;;;;;24.87;16.97;;;-1.80;99.90;;;;;;5018574;28;20188;-71
2023/03/01 06:07:38;;;;;;;23.50;16.77;;;-1.80;99.90;;;;;;5018221;28;20185;-71
2023/03/01 06:10:05;;;;;;;22.90;17.47;;;-1.80;99.90;;;;;;5018698;28;20189;-71
2023/03/01 06:12:36;;;;;;;23.47;17.10;;;-1.80;99.90;;;;;;5017806;28;20571;-71
2023/03/01 06:15:03;;;;;;;22.97;16.63;;;-1.80;99.90;;;;;;5016934;28;20209;-71
2023/03/01 06:17:31;;;;;;;28.17;18.00;;;-1.70;99.90;;;;;;5021088;28;20207;-71
2023/03/01 06:19:56;;;;;;;25.90;17.67;;;-1.70;99.90;;;;;;5016415;28;20572;-71
2023/03/01 06:22:22;;;;;;;25.07;16.93;;;-1.70;99.90;;;;;;5017371;28;20458;-71
2023/03/01 06:24:47;;;;;;;22.83;16.47;;;-1.70;99.90;;;;;;5020265;28;20200;-72
2023/03/01 06:27:13;;;;;;;24.63;18.37;;;-1.60;99.90;;;;;;5018443;28;20219;-71
2023/03/01 06:29:39;;;;;;;21.87;15.83;;;-1.60;99.90;;;;;;5017652;28;20612;-71
2023/03/01 06:32:04;;;;;;;23.60;17.40;;;-1.50;99.90;;;;;;5019232;28;20670;-72
2023/03/01 06:34:30;;;;;;;24.03;17.90;;;-1.50;99.90;;;;;;5020096;28;20216;-72
2023/03/01 06:36:56;;;;;;;24.47;16.73;;;-1.40;99.90;;;;;;5015535;28;20172;-71
2023/03/01 06:39:21;;;;;;;24.07;17.37;;;-1.40;99.90;;;;;;5018127;28;20586;-71
2023/03/01 06:41:47;;;;;;;21.33;16.90;;;-1.30;99.90;;;;;;5016927;28;20211;-72
2023/03/01 06:44:13;;;;;;;21.97;16.23;;;-1.30;99.90;;;;;;5020412;28;20231;-76
2023/03/01 06:46:40;;;;;;;23.80;16.93;;;-1.20;99.90;;;;;;5025399;28;20184;-74
2023/03/01 06:49:09;;;;;;;20.50;15.40;;;-1.20;99.90;;;;;;5022279;28;20248;-74
2023/03/01 06:51:37;;;;;;;23.10;17.03;;;-1.10;99.90;;;;;;5020408;28;20187;-75
2023/03/01 06:54:05;;;;;;;23.10;17.23;;;-1.00;99.90;;;;;;5017310;28;20197;-74
2023/03/01 06:56:32;;;;;;;23.60;17.27;;;-1.00;99.90;;;;;;5016152;28;20191;-75
2023/03/01 06:58:58;;;;;;;23.53;16.50;;;-1.00;99.90;;;;;;5017916;28;20188;-74
2023/03/01 07:01:23;;;;;;;26.67;16.80;;;-0.90;99.90;;;;;;5017390;28;20192;-75
2023/03/01 07:03:49;;;;;;;22.13;16.63;;;-0.80;99.90;;;;;;5016677;28;20295;-74
2023/03/01 07:06:15;;;;;;;24.00;16.90;;;-0.70;99.90;;;;;;5017004;28;20579;-74
2023/03/01 07:08:40;;;;;;;23.97;16.73;;;-0.60;99.90;;;;;;5017992;28;20232;-74
2023/03/01 07:11:06;;;;;;;24.03;16.10;;;-0.50;99.90;;;;;;5019635;28;20195;-73
2023/03/01 07:13:32;;;;;;;22.80;15.70;;;-0.40;99.90;;;;;;5017333;28;20217;-73
2023/03/01 07:15:58;;;;;;;21.23;15.43;;;-0.40;99.90;;;;;;5018075;28;20225;-74
2023/03/01 07:18:23;;;;;;;24.67;17.50;;;-0.30;99.90;;;;;;5018733;28;20216;-74
2023/03/01 07:20:49;;;;;;;22.00;16.00;;;-0.30;99.90;;;;;;5019589;28;21010;-74
2023/03/01 07:23:15;;;;;;;20.53;15.40;;;-0.30;99.90;;;;;;5015485;28;20204;-72
2023/03/01 07:25:41;;;;;;;24.90;17.30;;;-0.20;99.90;;;;;;5018554;28;20192;-72
2023/03/01 07:28:06;;;;;;;25.33;15.80;;;-0.20;99.90;;;;;;5015443;28;20203;-74
2023/03/01 07:30:32;;;;;;;23.00;16.70;;;-0.10;99.90;;;;;;5013515;28;20185;-70
2023/03/01 07:32:58;;;;;;;24.20;16.97;;;0.00;99.90;;;;;;5018262;28;20254;-72
2023/03/01 07:35:26;;;;;;;25.80;17.43;;;0.10;99.90;;;;;;5018972;28;20169;-71
2023/03/01 07:37:52;;;;;;;23.70;17.13;;;0.30;99.90;;;;;;5022372;28;20212;-70
2023/03/01 07:40:17;;;;;;;21.40;16.47;;;0.30;99.90;;;;;;5016014;28;20170;-72
2023/03/01 07:42:43;;;;;;;25.23;17.10;;;0.40;99.90;;;;;;5017685;28;20188;-70
2023/03/01 07:45:10;;;;;;;21.23;16.33;;;0.50;99.90;;;;;;5022355;28;20212;-72
2023/03/01 07:47:35;;;;;;;21.97;16.33;;;0.60;99.90;;;;;;5022502;28;20192;-73
2023/03/01 07:50:02;;;;;;;19.30;14.57;;;0.70;99.90;;;;;;5014674;28;20181;-72
2023/03/01 07:52:28;;;;;;;19.53;15.73;;;0.70;99.90;;;;;;5026501;28;20180;-74
2023/03/01 07:54:53;;;;;;;21.07;15.20;;;0.80;99.90;;;;;;5017520;28;20675;-73
2023/03/01 07:57:19;;;;;;;24.93;15.97;;;0.80;99.90;;;;;;5018790;28;20181;-74
2023/03/01 07:59:45;;;;;;;22.63;15.80;;;0.90;99.90;;;;;;5020676;28;20189;-72
2023/03/01 08:02:11;;;;;;;21.60;14.77;;;0.90;99.90;;;;;;5018497;28;20178;-73
2023/03/01 08:04:36;;;;;;;19.27;14.77;;;1.00;99.90;;;;;;5015936;28;20178;-73
2023/03/01 08:07:05;;;;;;;22.50;15.73;;;1.00;99.90;;;;;;5024527;28;20190;-73
2023/03/01 08:09:31;;;;;;;22.57;15.43;;;1.00;99.90;;;;;;5021156;28;20625;-73
2023/03/01 08:11:59;;;;;;;17.77;15.13;;;1.20;99.90;;;;;;5019064;28;20180;-71
2023/03/01 08:14:25;;;;;;;21.47;15.13;;;1.30;99.90;;;;;;5019757;28;20209;-71
2023/03/01 08:16:51;;;;;;;25.87;15.60;;;1.30;99.90;;;;;;5016153;28;20174;-73
2023/03/01 08:19:16;;;;;;;23.43;16.40;;;1.40;99.90;;;;;;5018959;28;20254;-73
2023/03/01 08:21:42;;;;;;;20.23;15.77;;;1.40;99.90;;;;;;5020565;28;20181;-72
2023/03/01 08:24:10;;;;;;;23.30;15.77;;;1.40;99.90;;;;;;5025255;28;20179;-73
2023/03/01 08:26:36;;;;;;;23.13;16.80;;;1.30;99.90;;;;;;5018592;28;20273;-72
2023/03/01 08:29:02;;;;;;;17.77;14.50;;;1.40;99.90;;;;;;5025715;28;20197;-72
2023/03/01 08:31:37;;;;;;;18.37;14.73;;;1.60;99.90;;;;;;5027346;28;20233;-72
2023/03/01 08:34:07;;;;;;;21.20;15.87;;;1.70;99.90;;;;;;5022716;28;20199;-72
2023/03/01 08:36:37;;;;;;;18.07;14.90;;;1.80;99.90;;;;;;5019837;28;20527;-72
2023/03/01 08:39:03;;;;;;;19.33;15.33;;;1.90;99.90;;;;;;5024833;28;20246;-72
2023/03/01 08:41:29;;;;;;;26.13;15.67;;;2.00;99.90;;;;;;5017977;28;20691;-71
2023/03/01 08:43:58;;;;;;;22.90;16.07;;;2.00;99.90;;;;;;5018588;28;20184;-71
2023/03/01 08:46:28;;;;;;;20.37;15.73;;;2.10;99.90;;;;;;5019324;28;20311;-71
2023/03/01 08:48:54;;;;;;;23.47;18.20;;;2.40;99.90;;;;;;5026255;28;20204;-72
2023/03/01 08:51:21;;;;;;;22.63;16.43;;;2.50;99.90;;;;;;5021803;28;20184;-75
2023/03/01 08:53:47;;;;;;;19.80;15.00;;;2.60;99.90;;;;;;5029846;28;20215;-73
2023/03/01 08:56:14;;;;;;;19.00;15.03;;;2.70;99.90;;;;;;5026797;28;20200;-72
2023/03/01 08:58:43;;;;;;;19.77;15.23;;;2.80;99.90;;;;;;5021211;28;20197;-75
2023/03/01 09:01:14;;;;;;;20.10;16.17;;;2.90;99.90;;;;;;5020403;28;20172;-73
2023/03/01 09:03:40;;;;;;;20.35;15.25;;;3.00;99.90;;;;;;5027485;28;20184;-72
2023/03/01 09:06:07;;;;;;;21.73;16.30;;;3.10;99.90;;;;;;5019632;28;20185;-72
2023/03/01 09:08:41;;;;;;;22.60;15.10;;;3.10;99.90;;;;;;5018413;28;20197;-72
2023/03/01 09:11:08;;;;;;;19.45;15.70;;;3.20;99.90;;;;;;5022049;28;20232;-72
2023/03/01 09:13:34;;;;;;;19.92;15.65;;;3.30;99.90;;;;;;5025005;28;20209;-72
2023/03/01 09:16:05;;;;;;;21.70;15.13;;;3.40;99.90;;;;;;5017932;28;20173;-72
2023/03/01 09:18:31;;;;;;;18.38;14.38;;;3.70;99.90;;;;;;5022083;28;20266;-74
2023/03/01 09:21:08;;;;;;;18.48;14.10;;;3.90;99.90;;;;;;5025833;28;20529;-73
2023/03/01 09:23:38;;;;;;;21.20;15.43;;;4.20;99.90;;;;;;5021281;28;20239;-72
2023/03/01 09:26:08;;;;;;;20.17;14.93;;;4.40;99.90;;;;;;5017630;28;20216;-71
2023/03/01 09:28:35;;;;;;;17.38;14.35;;;4.60;99.00;;;;;;5024490;28;20212;-73
2023/03/01 09:31:02;;;;;;;19.25;14.55;;;5.20;98.70;;;;;;5025202;28;20666;-73
2023/03/01 09:33:30;;;;;;;22.27;15.63;;;5.60;97.50;;;;;;5024715;28;20213;-72
2023/03/01 09:36:06;;;;;;;17.23;13.70;;;6.10;96.00;;;;;;5024490;28;20251;-74
2023/03/01 09:38:33;;;;;;;16.52;14.65;;;7.50;92.90;;;;;;5019913;28;20220;-75
2023/03/01 09:41:00;;;;;;;14.75;13.13;;;9.50;89.20;;;;;;5023809;28;20287;-74
2023/03/01 09:43:44;;;;;;;17.13;12.82;;;12.00;79.20;;;;;;5022546;28;20184;-74
2023/03/01 09:46:16;;;;;;;14.57;12.77;;;14.40;66.20;;;;;;5027714;28;20563;-74
2023/03/01 09:48:46;;;;;;;15.02;12.95;;;16.00;57.20;;;;;;5020793;28;20201;-75
2023/03/01 09:51:23;;;;;;;15.55;13.07;;;17.40;53.70;;;;;;5022215;28;20271;-78
2023/03/01 09:53:49;;;;;;;14.38;12.55;;;18.60;49.80;;;;;;5025888;28;20200;-74
2023/03/01 09:56:43;;;;;;;15.00;13.40;;;19.30;48.10;;;;;;5021368;28;20181;-75
2023/03/01 09:59:34;;;;;;;14.60;12.80;;;19.90;46.20;;;;;;5026852;28;20199;-74
2023/03/01 10:02:27;;;;;;;15.00;12.32;;;20.70;45.00;;;;;;5022598;28;20170;-74
2023/03/01 10:05:09;;;;;;;14.55;13.05;;;21.40;43.10;;;;;;5024763;28;20185;-77
2023/03/01 10:08:12;;;;;;;14.88;13.27;;;21.80;42.10;;;;;;5023445;28;20633;-74
2023/03/01 10:10:40;;;;;;;16.35;14.63;;;22.10;42.20;;;;;;5024653;28;20550;-75
2023/03/01 10:14:01;;;;;;;15.57;13.57;;;23.00;40.20;;;;;;5019673;28;20178;-75
2023/03/01 10:16:36;;;;;;;13.98;12.52;;;22.50;40.00;;;;;;4950702;28;20544;-75
2023/03/01 10:19:05;;;;;;;14.60;12.95;;;22.60;39.70;;;;;;5012533;28;20232;-74
2023/03/01 10:21:31;;;;;;;13.07;11.82;;;22.80;40.60;;;;;;5024866;28;20183;-75
2023/03/01 10:24:16;;;;;;;14.45;13.05;;;23.60;39.40;;;;;;5025633;28;20188;-75
2023/03/01 10:27:02;;;;;;;14.23;12.73;;;24.20;38.00;;;;;;5023647;28;20172;-74
2023/03/01 10:29:49;;;;;;;14.13;12.70;;;24.50;37.70;;;;;;5026462;28;20211;-75
2023/03/01 10:32:15;;;;;;;13.70;12.30;;;25.00;37.30;;;;;;5022531;28;20557;-76
2023/03/01 10:34:41;;;;;;;14.65;13.25;;;24.40;36.50;;;;;;5022368;28;20656;-75
2023/03/01 10:37:11;;;;;;;14.27;11.98;;;23.70;37.90;;;;;;5019563;28;20231;-77
2023/03/01 10:39:59;;;;;;;14.40;12.52;;;24.00;38.40;;;;;;5019655;28;20545;-76
2023/03/01 10:42:31;;;;;;;13.27;12.07;;;24.70;36.50;;;;;;5020545;28;20183;-73
2023/03/01 10:44:57;;;;;;;12.80;11.55;;;24.60;36.60;;;;;;5023767;28;20179;-73
2023/03/01 10:47:25;;;;;;;14.77;13.18;;;25.10;36.60;;;;;;5026211;28;20248;-74
2023/03/01 10:49:57;;;;;;;13.63;11.88;;;25.20;36.00;;;;;;5020825;28;20321;-73
2023/03/01 10:52:26;;;;;;;14.65;13.23;;;25.20;36.60;;;;;;5019486;28;20695;-73
2023/03/01 10:55:12;;;;;;;14.27;12.68;;;25.50;35.60;;;;;;5018353;28;20220;-73
2023/03/01 10:57:40;;;;;;;14.27;12.98;;;25.20;36.30;;;;;;5017245;28;20184;-73
2023/03/01 11:00:25;;;;;;;15.57;13.63;;;25.30;36.10;;;;;;5016457;28;20191;-73
2023/03/01 11:03:03;;;;;;;13.45;12.02;;;25.10;36.30;;;;;;5017463;28;20184;-73
2023/03/01 11:05:30;;;;;;;13.45;12.15;;;24.90;36.50;;;;;;5017402;28;20217;-73
2023/03/01 11:07:59;;;;;;;17.70;15.48;;;25.60;35.60;;;;;;5014448;28;20207;-73
2023/03/01 11:10:29;;;;;;;12.98;11.68;;;26.40;37.40;;;;;;5019347;28;20618;-75
2023/03/01 11:13:25;;;;;;;14.75;13.27;;;26.80;34.60;;;;;;5018716;28;20192;-75
2023/03/01 11:16:07;;;;;;;13.15;11.80;;;26.40;34.90;;;;;;5018436;28;20201;-75
2023/03/01 11:18:33;;;;;;;14.52;13.13;;;26.40;34.80;;;;;;5019755;28;20654;-75
2023/03/01 11:21:01;;;;;;;14.82;13.38;;;27.10;34.80;;;;;;5017154;28;20218;-76
2023/03/01 11:23:30;;;;;;;13.45;12.10;;;27.20;36.30;;;;;;5018355;28;20180;-73
2023/03/01 11:26:02;;;;;;;13.55;12.18;;;27.20;34.10;;;;;;5018235;28;20192;-74
2023/03/01 11:28:29;;;;;;;13.43;12.13;;;27.40;33.40;;;;;;5016513;28;20204;-74
2023/03/01 11:31:05;;;;;;;13.07;11.88;;;27.50;33.90;;;;;;5019608;28;20184;-74
2023/03/01 11:33:49;;;;;;;12.65;11.48;;;28.30;33.30;;;;;;5016105;28;20203;-74
2023/03/01 11:36:49;;;;;;;11.80;10.70;;;28.80;32.40;;;;;;5018301;28;20263;-74
2023/03/01 11:39:33;;;;;;;13.27;11.77;;;28.60;32.90;;;;;;5023339;28;20606;-75
2023/03/01 11:42:10;;;;;;;13.85;12.55;;;29.10;32.40;;;;;;5018240;28;20176;-75
2023/03/01 11:44:37;;;;;;;13.38;12.18;;;29.60;31.80;;;;;;5016927;28;20266;-77
2023/03/01 11:47:15;;;;;;;13.40;11.98;;;29.80;31.80;;;;;;5021807;28;20582;-74
2023/03/01 11:49:59;;;;;;;13.40;12.20;;;29.60;31.80;;;;;;5017941;28;20200;-76
2023/03/01 11:52:49;;;;;;;14.43;13.02;;;29.70;31.70;;;;;;5020679;28;20184;-74
2023/03/01 11:55:41;;;;;;;16.25;13.85;;;29.40;31.80;;;;;;5017160;28;20232;-75
2023/03/01 11:58:36;;;;;;;15.05;13.48;;;29.10;32.20;;;;;;5017032;28;20223;-78
2023/03/01 12:01:13;;;;;;;14.57;13.27;;;29.00;32.40;;;;;;5005366;28;20587;-74
2023/03/01 12:04:24;;;;;;;14.00;12.48;;;29.70;32.10;;;;;;5016005;28;20187;-74
2023/03/01 12:07:20;;;;;;;12.98;11.65;;;30.50;31.40;;;;;;5015194;28;20227;-74
2023/03/01 12:10:10;;;;;;;12.18;10.95;;;30.30;31.50;;;;;;5015196;28;21075;-74
2023/03/01 12:13:03;;;;;;;12.90;11.63;;;30.20;31.20;;;;;;5018412;28;20187;-74
2023/03/01 12:15:58;;;;;;;12.77;11.60;;;30.50;31.20;;;;;;5016913;28;20296;-74
2023/03/01 12:18:53;;;;;;;12.88;11.63;;;30.60;31.00;;;;;;5016692;28;20219;-75
2023/03/01 12:21:29;;;;;;;14.48;13.07;;;30.50;31.10;;;;;;5016542;28;20206;-75
2023/03/01 12:24:17;;;;;;;13.65;12.27;;;30.60;31.00;;;;;;5019913;28;20203;-74
2023/03/01 12:26:54;;;;;;;15.00;12.18;;;30.70;31.00;;;;;;5017233;28;20663;-74
2023/03/01 12:29:45;;;;;;;11.98;10.77;;;30.40;31.50;;;;;;5017676;28;20230;-74
2023/03/01 12:32:28;;;;;;;12.27;11.18;;;30.20;31.60;;;;;;5017228;28;20663;-74
2023/03/01 12:35:12;;;;;;;12.23;11.13;;;30.30;31.10;;;;;;5015701;28;20221;-75
2023/03/01 12:37:54;;;;;;;15.55;12.95;;;30.70;31.50;;;;;;5017352;28;20272;-75
2023/03/01 12:40:33;;;;;;;14.27;12.90;;;31.10;31.20;;;;;;5016485;28;20610;-73
2023/03/01 12:43:27;;;;;;;12.18;11.05;;;30.60;31.20;;;;;;5016176;28;20180;-74
2023/03/01 12:46:31;;;;;;;13.82;12.07;;;29.80;31.50;;;;;;5017040;28;20245;-73
2023/03/01 12:49:19;;;;;;;12.25;11.05;;;29.10;32.40;;;;;;4995863;28;20223;-74
2023/03/01 12:52:00;;;;;;;12.13;11.02;;;29.10;32.30;;;;;;5013384;28;20250;-75